Time;durP1;ratioP1;P1;durP2;ratioP2;P2;SDS_P1;SDS_P2;PMS_P1;PMS_P2;Temp;Humidity;BMP_temperature;BMP_pressure;BME280_temperature;BME280_humidity;BME280_pressure;Samples;Min_cycle;Max_cycle;Signal;HPM_P1;HPM_P2
2023/07/11 07:41:42;;;;;;;;;;;;;;;6.52;100.00;99574.13;5628335;23;19969;-86
2023/07/11 07:44:08;;;;;;;;;;;;;;;6.50;100.00;99568.03;4986537;28;19961;-85
2023/07/11 07:46:33;;;;;;;;;;;;;;;6.45;100.00;99568.19;5004348;28;19953;-86
2023/07/11 07:48:58;;;;;;;;;;;;;;;6.41;100.00;99560.41;4989991;28;19925;-86
2023/07/11 07:51:23;;;;;;;;;;;;;;;15.16;100.00;99534.25;5002153;28;19929;-86
2023/07/11 07:53:49;;;;;;;;;;;;;;;9.74;100.00;99551.09;4983016;28;19925;-84
2023/07/11 07:56:16;;;;;;;;;;;;;;;8.86;100.00;99566.13;4985789;28;19922;-84
2023/07/11 07:58:41;;;;;;;;;;;;;;;8.47;100.00;99557.94;4981961;28;19988;-84
2023/07/11 08:01:06;;;;;;;;;;;;;;;7.80;100.00;99559.44;5001005;28;19973;-85
2023/07/11 08:03:37;;;;;;;;;;;;;;;7.50;100.00;99562.25;4985781;28;19945;-84
2023/07/11 08:06:03;;;;;;;;;;;;;;;7.35;100.00;99555.69;5000103;28;19968;-84
2023/07/11 08:08:28;;;;;;;;;;;;;;;7.28;100.00;99554.19;5000503;28;19926;-85
2023/07/11 08:10:54;;;;;;;;;;;;;;;7.15;100.00;99553.75;5001371;28;19933;-84
2023/07/11 08:13:19;;;;;;;;;;;;;;;7.22;100.00;99549.97;4981863;28;19925;-86
2023/07/11 08:15:44;;;;;;;;;;;;;;;7.09;100.00;99549.50;4999597;28;19936;-85
2023/07/11 08:18:10;;;;;;;;;;;;;;;7.14;100.00;99545.88;4983294;28;19924;-84
2023/07/11 08:20:36;;;;;;;;;;;;;;;7.03;100.00;99549.72;5001493;28;19995;-85
2023/07/11 08:23:01;;;;;;;;;;;;;;;7.05;100.00;99540.00;4978302;28;19918;-85
2023/07/11 08:25:27;;;;;;;;;;;;;;;6.96;100.00;99536.81;4996768;28;20008;-85
2023/07/11 08:27:53;;;;;;;;;;;;;;;6.93;100.00;99532.50;4981999;28;19924;-85
2023/07/11 08:30:18;;;;;;;;;;;;;;;6.95;100.00;99535.06;4997714;28;20288;-85
2023/07/11 08:32:43;;;;;;;;;;;;;;;6.96;100.00;99537.66;4980068;28;19933;-84
2023/07/11 08:35:09;;;;;;;;;;;;;;;6.99;100.00;99526.16;4997245;28;19929;-86
2023/07/11 08:37:34;;;;;;;;;;;;;;;6.89;100.00;99525.59;4998228;28;19917;-85
2023/07/11 08:40:00;;;;;;;;;;;;;;;6.89;100.00;99521.19;4983994;28;19929;-84
2023/07/11 08:42:40;;;;;;;;;;;;;;;6.96;100.00;99516.59;4979452;28;19932;-85
2023/07/11 08:45:21;;;;;;;;;;;;;;;6.93;100.00;99516.69;4998725;28;20016;-85
2023/07/11 08:47:53;;;;;;;;;;;;;;;6.93;100.00;99519.31;5002849;28;20431;-85
2023/07/11 08:50:20;;;;;;;;;;;;;;;6.93;100.00;99511.41;4985042;28;19961;-85
2023/07/11 08:52:48;;;;;;;;;;;;;;;6.95;100.00;99503.47;5001441;28;20305;-84
2023/07/11 08:55:17;;;;;;;;;;;;;;;6.87;100.00;99508.97;5001463;28;20388;-88
2023/07/11 08:57:45;;;;;;;;;;;;;;;6.94;100.00;99502.63;5001664;28;20006;-84
2023/07/11 09:00:14;;;;;;;;;;;;;;;6.94;100.00;99507.00;4984109;28;20415;-87
2023/07/11 09:02:56;;;;;;;;;;;;;;;7.00;100.00;99498.91;4984385;28;19926;-86
2023/07/11 09:05:32;;;;;;;;;;;;;;;6.94;100.00;99502.63;4984838;28;19921;-84
2023/07/11 09:07:58;;;;;;;;;;;;;;;6.90;100.00;99506.25;4984991;28;19929;-85
2023/07/11 09:10:40;;;;;;;;;;;;;;;6.96;100.00;99499.94;5004100;28;19918;-85
2023/07/11 09:13:20;;;;;;;;;;;;;;;6.97;100.00;99491.09;5001437;28;20405;-85
2023/07/11 09:15:51;;;;;;;;;;;;;;;6.94;100.00;99486.81;5001272;28;20000;-84
2023/07/11 09:18:27;;;;;;;;;;;;;;;6.94;100.00;99492.06;4983962;28;20288;-84
2023/07/11 09:21:08;;;;;;;;;;;;;;;6.91;100.00;99482.50;4983366;28;19925;-85
2023/07/11 09:23:42;;;;;;;;;;;;;;;6.91;100.00;99481.63;4984127;28;19937;-85
2023/07/11 09:26:11;;;;;;;;;;;;;;;6.91;100.00;99474.59;4979690;28;20373;-85
2023/07/11 09:28:37;;;;;;;;;;;;;;;6.94;100.00;99467.50;4979887;28;19976;-85
2023/07/11 09:31:06;;;;;;;;;;;;;;;6.95;100.00;99462.16;4984381;28;19987;-85
2023/07/11 09:33:33;;;;;;;;;;;;;;;6.98;100.00;99467.34;4985393;28;19925;-85
2023/07/11 09:35:59;;;;;;;;;;;;;;;6.93;100.00;99458.72;4988683;28;19929;-85
2023/07/11 09:38:30;;;;;;;;;;;;;;;7.00;100.00;99462.88;4989353;28;19926;-85
2023/07/11 09:41:16;;;;;;;;;;;;;;;7.57;100.00;99465.34;4986546;28;20386;-85
2023/07/11 09:43:41;;;;;;;;;;;;;;;7.99;100.00;99459.41;4991591;28;19975;-85
2023/07/11 09:46:14;;;;;;;;;;;;;;;8.18;100.00;99462.22;5002222;28;20053;-83
2023/07/11 09:48:41;;;;;;;;;;;;;;;7.60;100.00;99457.31;4990850;28;19940;-85
2023/07/11 09:51:36;;;;;;;;;;;;;;;7.99;100.00;99459.41;5006125;28;19975;-85
2023/07/11 09:54:02;;;;;;;;;;;;;;;18.05;100.00;99452.03;4983977;28;19929;-87
2023/07/11 09:56:30;;;;;;;;;;;;;;;10.44;100.00;99443.81;5001342;28;19921;-90
2023/07/11 09:58:58;;;;;;;;;;;;;;;9.24;100.00;99452.69;4975052;28;19932;-85
2023/07/11 10:01:25;;;;;;;;;;;;;;;9.13;100.00;99452.28;4959921;28;19926;-86
2023/07/11 10:03:53;;;;;;;;;;;;;;;8.89;100.00;99457.66;4976567;28;20006;-86
2023/07/11 10:06:32;;;;;;;;;;;;;;;8.19;100.00;99454.22;4975676;28;20020;-86
2023/07/11 10:09:03;;;;;;;;;;;;;;;8.58;100.00;99455.41;4969118;28;19922;-86
2023/07/11 10:11:29;;;;;;;;;;;;;;;8.87;100.00;99453.34;4958478;28;19922;-85
2023/07/11 10:13:55;;;;;;;;;;;;;;;8.57;100.00;99448.41;4960396;28;20552;-85
2023/07/11 10:16:21;;;;;;;;;;;;;;;8.07;100.00;99438.00;4976954;28;19953;-86
2023/07/11 10:18:46;;;;;;;;;;;;;;;7.95;100.00;99436.72;4960279;28;19972;-85
2023/07/11 10:21:22;;;;;;;;;;;;;;;7.77;100.00;99435.59;4976999;28;19926;-85
2023/07/11 10:23:48;;;;;;;;;;;;;;;7.93;100.00;99428.84;4967292;28;20304;-85
2023/07/11 10:26:20;;;;;;;;;;;;;;;8.78;100.00;99436.13;4973546;28;19937;-85
2023/07/11 10:28:49;;;;;;;;;;;;;;;9.62;100.00;99434.31;4976660;28;20389;-84
2023/07/11 10:31:18;;;;;;;;;;;;;;;9.32;100.00;99422.41;5006621;28;19933;-85
2023/07/11 10:33:50;;;;;;;;;;;;;;;9.25;100.00;99419.19;4988258;28;19928;-84
2023/07/11 10:36:19;;;;;;;;;;;;;;;9.20;100.00;99419.38;4997682;28;19930;-82
2023/07/11 10:38:56;;;;;;;;;;;;;;;9.16;100.00;99409.88;4980396;28;20776;-84
2023/07/11 10:41:46;;;;;;;;;;;;;;;9.23;100.00;99413.09;4986542;28;19925;-85
2023/07/11 10:44:15;;;;;;;;;;;;;;;9.30;100.00;99417.19;4967522;28;19964;-84
2023/07/11 10:46:46;;;;;;;;;;;;;;;9.33;100.00;99411.75;4992444;28;19960;-85
2023/07/11 10:49:16;;;;;;;;;;;;;;;9.37;100.00;99401.94;4977836;28;19922;-85
2023/07/11 10:52:01;;;;;;;;;;;;;;;9.42;100.00;99395.50;4993391;28;20293;-85
2023/07/11 10:54:38;;;;;;;;;;;;;;;9.49;100.00;99403.16;4987449;28;19926;-85
2023/07/11 10:57:10;;;;;;;;;;;;;;;9.53;100.00;99396.81;4993651;28;20004;-85
2023/07/11 10:59:35;;;;;;;;;;;;;;;9.52;100.00;99395.94;4990731;28;20381;-85
2023/07/11 11:02:05;;;;;;;;;;;;;;;9.54;100.00;99394.13;4974950;28;19961;-86
2023/07/11 11:04:37;;;;;;;;;;;;;;;9.53;100.00;99386.25;4993869;28;19948;-85
2023/07/11 11:07:05;;;;;;;;;;;;;;;9.58;100.00;99378.97;4973874;28;19926;-86
2023/07/11 11:09:43;;;;;;;;;;;;;;;9.54;100.00;99377.38;4977169;28;20373;-86
2023/07/11 11:12:11;;;;;;;;;;;;;;;9.64;100.00;99381.31;4973233;28;19932;-87
2023/07/11 11:14:42;;;;;;;;;;;;;;;9.69;100.00;99389.91;4974719;28;19921;-86
2023/07/11 11:17:14;;;;;;;;;;;;;;;9.69;100.00;99381.97;4975519;28;20018;-86
2023/07/11 11:19:57;;;;;;;;;;;;;;;9.71;100.00;99373.97;4975973;28;20064;-85
2023/07/11 11:22:37;;;;;;;;;;;;;;;9.71;100.00;99379.25;4975996;28;19925;-86
2023/07/11 11:25:08;;;;;;;;;;;;;;;9.78;100.00;99376.25;4972943;28;19984;-85
2023/07/11 11:27:41;;;;;;;;;;;;;;;9.81;100.00;99362.00;4992429;28;20013;-85
2023/07/11 11:30:25;;;;;;;;;;;;;;;9.80;100.00;99357.66;4991204;28;19926;-85
2023/07/11 11:32:57;;;;;;;;;;;;;;;9.76;100.00;99359.56;4994281;28;19926;-85
2023/07/11 11:35:23;;;;;;;;;;;;;;;9.86;100.00;99352.09;4974556;28;19964;-85
2023/07/11 11:38:06;;;;;;;;;;;;;;;9.89;100.00;99349.31;4993364;28;19945;-86
2023/07/11 11:40:33;;;;;;;;;;;;;;;9.92;100.00;99343.84;4973871;28;19922;-86
2023/07/11 11:43:01;;;;;;;;;;;;;;;9.90;100.00;99337.78;4971255;28;19921;-86
2023/07/11 11:45:27;;;;;;;;;;;;;;;10.00;100.00;99340.84;4972849;28;20308;-87
2023/07/11 11:47:53;;;;;;;;;;;;;;;9.94;100.00;99328.78;4993128;28;20368;-88
2023/07/11 11:50:21;;;;;;;;;;;;;;;10.01;100.00;99324.03;4992978;28;20388;-86
2023/07/11 11:52:53;;;;;;;;;;;;;;;10.10;100.00;99313.00;4976896;28;19929;-85
2023/07/11 11:55:34;;;;;;;;;;;;;;;10.10;100.00;99314.78;4990856;28;20272;-86
2023/07/11 11:58:00;;;;;;;;;;;;;;;10.10;100.00;99320.97;4992269;28;19976;-86
2023/07/11 12:00:39;;;;;;;;;;;;;;;10.12;100.00;99305.00;4972845;28;20021;-87
2023/07/11 12:03:17;;;;;;;;;;;;;;;10.12;100.00;99305.84;4974959;28;19926;-86
2023/07/11 12:05:47;;;;;;;;;;;;;;;10.16;100.00;99307.44;4969373;28;19983;-90
2023/07/11 12:08:23;;;;;;;;;;;;;;;10.21;100.00;99293.97;4972312;28;20274;-87
2023/07/11 12:11:06;;;;;;;;;;;;;;;10.23;100.00;99289.44;4973812;28;20045;-86
2023/07/11 12:13:32;;;;;;;;;;;;;;;10.23;100.00;99280.63;4975122;28;20009;-85
2023/07/11 12:16:05;;;;;;;;;;;;;;;10.21;100.00;99271.91;4991340;28;19922;-87
2023/07/11 12:18:44;;;;;;;;;;;;;;;10.25;100.00;99276.13;4975613;28;20321;-90
2023/07/11 12:21:12;;;;;;;;;;;;;;;10.31;100.00;99274.03;4991389;28;20422;-86
2023/07/11 12:23:40;;;;;;;;;;;;;;;10.26;100.00;99269.88;4975480;28;19917;-85
2023/07/11 12:26:10;;;;;;;;;;;;;;;10.29;100.00;99264.44;4990626;28;19961;-86
2023/07/11 12:28:35;;;;;;;;;;;;;;;10.35;100.00;99265.03;4973443;28;20013;-86
2023/07/11 12:31:05;;;;;;;;;;;;;;;10.36;100.00;99261.44;4974166;28;20012;-86
2023/07/11 12:33:32;;;;;;;;;;;;;;;10.30;100.00;99259.06;4972911;28;19925;-85
2023/07/11 12:36:16;;;;;;;;;;;;;;;10.33;100.00;99250.16;4973883;28;19922;-86
2023/07/11 12:38:58;;;;;;;;;;;;;;;10.34;100.00;99241.28;4972146;28;20008;-86
2023/07/11 12:41:28;;;;;;;;;;;;;;;10.28;100.00;99242.41;4985869;28;19925;-86
2023/07/11 12:43:54;;;;;;;;;;;;;;;10.36;100.00;99240.25;4990669;28;19926;-86
2023/07/11 12:46:19;;;;;;;;;;;;;;;10.32;100.00;99238.72;4990925;28;19929;-85
2023/07/11 12:48:47;;;;;;;;;;;;;;;10.35;100.00;99225.31;4975752;28;19926;-85
2023/07/11 12:51:26;;;;;;;;;;;;;;;10.35;100.00;99230.63;4973601;28;20374;-86
2023/07/11 12:53:57;;;;;;;;;;;;;;;10.38;100.00;99231.38;4971928;28;19932;-86
2023/07/11 12:56:22;;;;;;;;;;;;;;;10.41;100.00;99220.63;4973218;28;19918;-87
2023/07/11 12:58:48;;;;;;;;;;;;;;;10.44;100.00;99221.31;4974368;28;19922;-86
2023/07/11 13:01:14;;;;;;;;;;;;;;;10.48;100.00;99212.31;4990181;28;19925;-86
2023/07/11 13:03:40;;;;;;;;;;;;;;;10.47;100.00;99212.38;4972449;28;19922;-87
2023/07/11 13:06:25;;;;;;;;;;;;;;;10.54;100.00;99213.75;4991281;28;20300;-89
2023/07/11 13:08:51;;;;;;;;;;;;;;;10.52;100.00;99208.53;4988737;28;19918;-85
2023/07/11 13:11:24;;;;;;;;;;;;;;;10.47;100.00;99199.13;4970415;28;19929;-85
2023/07/11 13:13:50;;;;;;;;;;;;;;;10.46;100.00;99197.41;4972108;28;19932;-85
2023/07/11 13:16:16;;;;;;;;;;;;;;;10.57;100.00;99204.81;4991302;28;19929;-85
2023/07/11 13:18:42;;;;;;;;;;;;;;;10.58;100.00;99190.59;4972236;28;19973;-85
2023/07/11 13:21:08;;;;;;;;;;;;;;;10.54;100.00;99195.22;4973692;28;19930;-86
2023/07/11 13:23:37;;;;;;;;;;;;;;;10.57;100.00;99183.63;4974245;28;19925;-86
2023/07/11 13:26:10;;;;;;;;;;;;;;;10.61;100.00;99179.84;4969550;28;20366;-86
2023/07/11 13:28:37;;;;;;;;;;;;;;;10.69;100.00;99178.53;4972992;28;19941;-88
2023/07/11 13:31:03;;;;;;;;;;;;;;;10.65;100.00;99176.97;4989765;28;19929;-87
2023/07/11 13:33:31;;;;;;;;;;;;;;;10.58;100.00;99180.88;4974008;28;19980;-85
2023/07/11 13:35:58;;;;;;;;;;;;;;;10.60;100.00;99184.31;4990955;28;19954;-85
2023/07/11 13:38:40;;;;;;;;;;;;;;;10.60;100.00;99165.75;4969728;28;19921;-86
2023/07/11 13:41:11;;;;;;;;;;;;;;;10.66;100.00;99161.94;4978779;28;19922;-86
2023/07/11 13:43:38;;;;;;;;;;;;;;;10.68;100.00;99166.19;4988766;28;20013;-85
2023/07/11 13:46:04;;;;;;;;;;;;;;;10.69;100.00;99172.34;4990688;28;20282;-85
2023/07/11 13:48:30;;;;;;;;;;;;;;;17.50;100.00;99163.38;4986332;28;20006;-87
2023/07/11 13:51:24;;;;;;;;;;;;;;;15.17;100.00;99121.50;4968903;28;19976;-86
2023/07/11 13:53:52;;;;;;;;;;;;;;;12.03;100.00;99148.16;4967376;28;20300;-92
2023/07/11 13:56:18;;;;;;;;;;;;;;;11.37;100.00;99152.78;4973601;28;20293;-88
2023/07/11 13:58:44;;;;;;;;;;;;;;;11.14;100.00;99151.41;4971574;28;19922;-86
2023/07/11 14:01:13;;;;;;;;;;;;;;;10.94;100.00;99161.28;4972776;28;19972;-84
2023/07/11 14:03:39;;;;;;;;;;;;;;;10.83;100.00;99153.06;4970385;28;20008;-86
2023/07/11 14:06:04;;;;;;;;;;;;;;;10.77;100.00;99154.28;4989215;28;20017;-88
2023/07/11 14:08:29;;;;;;;;;;;;;;;10.68;100.00;99152.13;4986736;28;19932;-86
2023/07/11 14:10:55;;;;;;;;;;;;;;;10.66;100.00;99152.19;4971369;28;19980;-85
2023/07/11 14:13:22;;;;;;;;;;;;;;;10.65;100.00;99144.31;4990051;28;19937;-87
2023/07/11 14:15:47;;;;;;;;;;;;;;;10.60;100.00;99149.03;4985199;28;19938;-85
2023/07/11 14:18:13;;;;;;;;;;;;;;;10.57;100.00;99135.94;4985907;28;20374;-87
2023/07/11 14:20:39;;;;;;;;;;;;;;;10.57;100.00;99136.78;4968317;28;19925;-85
2023/07/11 14:23:23;;;;;;;;;;;;;;;10.54;100.00;99144.88;4989272;28;19933;-87
2023/07/11 14:25:49;;;;;;;;;;;;;;;10.54;100.00;99140.44;4975353;28;19930;-86
2023/07/11 14:28:14;;;;;;;;;;;;;;;10.53;100.00;99149.34;4978262;28;19922;-87
2023/07/11 14:30:43;;;;;;;;;;;;;;;10.60;100.00;99144.56;4976327;28;19964;-87
2023/07/11 14:33:12;;;;;;;;;;;;;;;10.52;100.00;99139.66;4988743;28;20013;-88
2023/07/11 14:35:37;;;;;;;;;;;;;;;10.58;100.00;99145.56;4972365;28;19941;-87
2023/07/11 14:38:04;;;;;;;;;;;;;;;10.58;100.00;99137.63;4974665;28;20008;-86
2023/07/11 14:40:30;;;;;;;;;;;;;;;10.60;100.00;99128.66;4974357;28;20251;-86
2023/07/11 14:42:56;;;;;;;;;;;;;;;10.63;100.00;99117.06;4974315;28;20396;-85
2023/07/11 14:45:22;;;;;;;;;;;;;;;10.60;100.00;99114.59;4971083;28;19922;-87
2023/07/11 14:47:48;;;;;;;;;;;;;;;10.65;100.00;99110.72;4974736;28;19926;-85
2023/07/11 14:50:15;;;;;;;;;;;;;;;10.64;100.00;99111.69;4971443;28;19944;-87
2023/07/11 14:52:40;;;;;;;;;;;;;;;10.70;100.00;99110.47;4986250;28;20424;-88
2023/07/11 14:55:10;;;;;;;;;;;;;;;10.72;100.00;99120.06;4970493;28;20012;-89
2023/07/11 14:57:35;;;;;;;;;;;;;;;10.83;100.00;99138.06;4974696;28;20304;-85
2023/07/11 15:00:02;;;;;;;;;;;;;;;10.79;100.00;99151.53;4984519;28;19921;-85
2023/07/11 15:02:29;;;;;;;;;;;;;;;10.77;100.00;99143.69;4973420;28;20002;-88
2023/07/11 15:04:54;;;;;;;;;;;;;;;10.81;100.00;99123.16;4993099;28;19932;-87
2023/07/11 15:07:19;;;;;;;;;;;;;;;12.58;100.00;99098.81;4993786;28;19921;-88
2023/07/11 15:09:45;;;;;;;;;;;;;;;10.99;100.00;99115.97;4992474;28;19926;-86
2023/07/11 15:12:13;;;;;;;;;;;;;;;10.65;100.00;99139.03;4972223;28;19922;-88
2023/07/11 15:14:40;;;;;;;;;;;;;;;10.45;100.00;99146.25;4971789;28;19949;-89
2023/07/11 15:17:15;;;;;;;;;;;;;;;10.47;100.00;99144.34;4991321;28;20016;-88
2023/07/11 15:19:40;;;;;;;;;;;;;;;10.29;100.00;99162.03;4991091;28;20371;-85
2023/07/11 15:22:09;;;;;;;;;;;;;;;10.49;100.00;99226.38;4989777;28;20020;-89
2023/07/11 15:24:38;;;;;;;;;;;;;;;10.98;100.00;99233.56;4986854;28;19922;-86
2023/07/11 15:27:03;;;;;;;;;;;;;;;10.85;100.00;99236.00;4974151;28;20365;-85
2023/07/11 15:29:28;;;;;;;;;;;;;;;10.52;100.00;99213.00;4975778;28;19932;-88
2023/07/11 15:31:54;;;;;;;;;;;;;;;10.42;100.00;99209.09;4974514;28;19976;-85
2023/07/11 15:34:23;;;;;;;;;;;;;;;10.40;100.00;99198.56;4976613;28;19921;-87
2023/07/11 15:36:49;;;;;;;;;;;;;;;10.34;100.00;99183.88;4971474;28;19957;-90
2023/07/11 15:39:14;;;;;;;;;;;;;;;10.28;100.00;99168.25;4971302;28;19968;-89
2023/07/11 15:41:55;;;;;;;;;;;;;;;10.22;100.00;99126.22;4990141;28;19945;-87
2023/07/11 15:44:21;;;;;;;;;;;;;;;10.22;100.00;99075.91;4991449;28;19921;-87
2023/07/11 15:46:46;;;;;;;;;;;;;;;10.18;100.00;99039.97;4976140;28;19926;-87
2023/07/11 15:49:16;;;;;;;;;;;;;;;10.18;100.00;99026.72;4977265;28;19918;-86
2023/07/11 15:51:41;;;;;;;;;;;;;;;10.20;100.00;99040.72;4994353;28;19918;-86
2023/07/11 15:54:08;;;;;;;;;;;;;;;10.21;100.00;99033.63;4994557;28;19959;-90
2023/07/11 15:56:34;;;;;;;;;;;;;;;10.22;100.00;99030.91;4991522;28;19945;-88
2023/07/11 15:58:59;;;;;;;;;;;;;;;10.21;100.00;99029.22;4987574;28;20008;-91
2023/07/11 16:01:24;;;;;;;;;;;;;;;10.25;100.00;99033.38;4994205;28;20009;-87
2023/07/11 16:03:49;;;;;;;;;;;;;;;10.26;100.00;99035.09;4989328;28;19918;-87
2023/07/11 16:06:16;;;;;;;;;;;;;;;10.28;100.00;99035.88;4976630;28;19928;-88
2023/07/11 16:08:42;;;;;;;;;;;;;;;10.27;100.00;99039.44;4976427;28;19917;-88
2023/07/11 16:11:08;;;;;;;;;;;;;;;10.26;100.00;99042.16;4973838;28;19925;-85
2023/07/11 16:13:33;;;;;;;;;;;;;;;10.34;100.00;99058.56;4971369;28;20361;-85
2023/07/11 16:15:59;;;;;;;;;;;;;;;10.34;100.00;99072.66;4973830;28;20365;-85
2023/07/11 16:18:26;;;;;;;;;;;;;;;10.37;100.00;99082.25;4976342;28;20012;-85
2023/07/11 16:20:54;;;;;;;;;;;;;;;10.46;100.00;99094.97;4988079;28;19933;-84
2023/07/11 16:23:21;;;;;;;;;;;;;;;10.44;100.00;99053.63;4993150;28;19921;-85
2023/07/11 16:25:47;;;;;;;;;;;;;;;10.42;100.00;98990.16;4992302;28;19941;-83
2023/07/11 16:28:21;;;;;;;;;;;;;;;10.46;100.00;98969.63;4976138;28;19918;-86
2023/07/11 16:30:48;;;;;;;;;;;;;;;10.51;100.00;98944.63;4993301;28;19918;-85
2023/07/11 16:33:37;;;;;;;;;;;;;;;10.52;100.00;98987.84;4976062;28;20758;-85
2023/07/11 16:36:22;;;;;;;;;;;;;;;;;;;;;
2023/07/11 16:38:49;;;;;;;;;;;;;;;10.51;100.00;98999.38;4993574;28;19918;-84
2023/07/11 16:41:16;;;;;;;;;;;;;;;10.64;100.00;99020.72;4975039;28;19922;-86
2023/07/11 16:43:41;;;;;;;;;;;;;;;10.63;100.00;99014.59;4992899;28;20357;-89
2023/07/11 16:46:09;;;;;;;;;;;;;;;10.67;100.00;99015.28;4975782;28;19922;-87
2023/07/11 16:48:35;;;;;;;;;;;;;;;10.69;100.00;99013.38;4993193;28;20381;-89
2023/07/11 16:51:02;;;;;;;;;;;;;;;10.71;100.00;99015.00;4993016;28;19925;-91
2023/07/11 16:53:28;;;;;;;;;;;;;;;10.80;100.00;99031.34;4975937;28;20008;-87
2023/07/11 16:55:56;;;;;;;;;;;;;;;10.77;100.00;99021.78;4992043;28;19953;-86
2023/07/11 16:58:22;;;;;;;;;;;;;;;10.80;100.00;99004.84;4992581;28;19926;-89
2023/07/11 17:00:51;;;;;;;;;;;;;;;10.82;100.00;99001.19;4974744;28;19918;-86
2023/07/11 17:03:17;;;;;;;;;;;;;;;10.88;100.00;98999.97;4990898;28;20373;-89
2023/07/11 17:05:43;;;;;;;;;;;;;;;10.96;100.00;99032.22;4991609;28;19933;-88
2023/07/11 17:08:14;;;;;;;;;;;;;;;10.97;100.00;99065.69;4972672;28;19921;-88
2023/07/11 17:10:39;;;;;;;;;;;;;;;11.01;100.00;99061.94;4971670;28;19925;-91
2023/07/11 17:13:09;;;;;;;;;;;;;;;11.05;100.00;99042.25;4992967;28;19964;-85
2023/07/11 17:15:34;;;;;;;;;;;;;;;11.06;100.00;99022.78;4993210;28;19925;-84
2023/07/11 17:18:00;;;;;;;;;;;;;;;11.14;100.00;99008.25;4992492;28;19921;-86
2023/07/11 17:20:25;;;;;;;;;;;;;;;19.72;100.00;99009.16;4975461;28;20392;-84
2023/07/11 17:22:50;;;;;;;;;;;;;;;14.25;100.00;98996.44;4991475;28;20028;-93
2023/07/11 17:25:22;;;;;;;;;;;;;;;12.17;100.00;98980.88;4992293;28;19922;-88
2023/07/11 17:27:49;;;;;;;;;;;;;;;11.44;100.00;98974.63;4991653;28;20415;-92
2023/07/11 17:30:24;;;;;;;;;;;;;;;11.20;100.00;98966.31;4974330;28;20332;-92
2023/07/11 17:32:49;;;;;;;;;;;;;;;10.99;100.00;98939.25;4993081;28;19924;-85
2023/07/11 17:35:15;;;;;;;;;;;;;;;10.93;100.00;98934.31;4993355;28;19917;-90
2023/07/11 17:37:41;;;;;;;;;;;;;;;10.89;100.00;98948.66;4993087;28;19961;-86
2023/07/11 17:40:15;;;;;;;;;;;;;;;10.77;100.00;98946.72;4993030;28;19941;-91
2023/07/11 17:42:43;;;;;;;;;;;;;;;10.84;100.00;98921.59;4990787;28;19925;-88
2023/07/11 17:45:08;;;;;;;;;;;;;;;10.68;100.00;98901.25;4992393;28;19947;-91
2023/07/11 17:47:34;;;;;;;;;;;;;;;10.76;100.00;98907.94;4970896;28;19925;-86
2023/07/11 17:49:59;;;;;;;;;;;;;;;10.72;100.00;98910.75;4988577;28;19926;-86
2023/07/11 17:52:25;;;;;;;;;;;;;;;10.79;100.00;98902.47;4975163;28;20369;-88
2023/07/11 17:54:51;;;;;;;;;;;;;;;10.75;100.00;98903.56;4992352;28;19918;-87
2023/07/11 17:57:18;;;;;;;;;;;;;;;10.82;100.00;98899.63;4995755;28;19922;-85
2023/07/11 17:59:44;;;;;;;;;;;;;;;10.88;100.00;98896.59;4995389;28;19929;-90
2023/07/11 18:02:16;;;;;;;;;;;;;;;10.87;100.00;98890.44;4979392;28;19964;-86
2023/07/11 18:04:41;;;;;;;;;;;;;;;12.39;100.00;98902.50;4994856;28;20389;-90
2023/07/11 18:07:21;;;;;;;;;;;;;;;11.48;100.00;98932.84;4979070;28;20004;-91
2023/07/11 18:09:48;;;;;;;;;;;;;;;11.27;100.00;98945.59;4977635;28;19964;-86
2023/07/11 18:12:17;;;;;;;;;;;;;;;11.28;100.00;98923.44;4994330;28;19944;-87
2023/07/11 18:14:46;;;;;;;;;;;;;;;11.31;100.00;98911.78;4994914;28;19976;-89
2023/07/11 18:17:18;;;;;;;;;;;;;;;11.34;100.00;98908.94;4978868;28;20334;-90
2023/07/11 18:19:43;;;;;;;;;;;;;;;11.34;100.00;98915.09;4978432;28;19918;-86
2023/07/11 18:22:13;;;;;;;;;;;;;;;11.45;100.00;98919.75;4996058;28;19961;-87
2023/07/11 18:24:38;;;;;;;;;;;;;;;11.33;100.00;98913.41;4978500;28;20282;-85
2023/07/11 18:27:12;;;;;;;;;;;;;;;11.39;100.00;98905.09;4993776;28;19948;-89
2023/07/11 18:29:37;;;;;;;;;;;;;;;11.42;100.00;98873.06;4991293;28;19997;-88
2023/07/11 18:32:09;;;;;;;;;;;;;;;11.33;100.00;98875.41;4977023;28;20377;-88
2023/07/11 18:34:42;;;;;;;;;;;;;;;11.41;100.00;98866.06;4992194;28;19922;-90
2023/07/11 18:37:10;;;;;;;;;;;;;;;11.49;100.00;98875.31;4990649;28;20289;-90
2023/07/11 18:39:35;;;;;;;;;;;;;;;11.51;100.00;98884.06;4991849;28;19937;-87
2023/07/11 18:42:01;;;;;;;;;;;;;;;11.45;100.00;98882.63;4975152;28;19922;-87
2023/07/11 18:44:26;;;;;;;;;;;;;;;11.48;100.00;98873.63;4977528;28;19957;-88
2023/07/11 18:46:51;;;;;;;;;;;;;;;11.57;100.00;98873.91;4976373;28;19922;-88
2023/07/11 18:49:18;;;;;;;;;;;;;;;11.50;100.00;98885.00;4971283;28;20324;-88
2023/07/11 18:51:45;;;;;;;;;;;;;;;11.61;100.00;98917.03;4976935;28;22271;-87
2023/07/11 18:54:10;;;;;;;;;;;;;;;11.58;100.00;98955.22;4976987;28;19930;-87
2023/07/11 18:56:35;;;;;;;;;;;;;;;11.59;100.00;98951.63;4971085;28;19925;-90
2023/07/11 18:59:00;;;;;;;;;;;;;;;11.62;100.00;98918.75;4971629;28;20439;-89
2023/07/11 19:01:26;;;;;;;;;;;;;;;11.64;100.00;98882.34;4976985;28;20270;-85
2023/07/11 19:03:58;;;;;;;;;;;;;;;11.67;100.00;98905.19;4977719;28;19926;-93
2023/07/11 19:06:24;;;;;;;;;;;;;;;11.90;100.00;98944.47;4977043;28;20000;-87
2023/07/11 19:08:49;;;;;;;;;;;;;;;11.82;100.00;98950.22;4969961;28;19970;-86
2023/07/11 19:11:15;;;;;;;;;;;;;;;11.88;100.00;98953.44;4993657;28;20640;-88
2023/07/11 19:13:41;;;;;;;;;;;;;;;11.84;100.00;98959.88;4977637;28;19976;-89
2023/07/11 19:16:14;;;;;;;;;;;;;;;11.84;100.00;98933.34;4977529;28;20012;-88
2023/07/11 19:18:39;;;;;;;;;;;;;;;11.90;100.00;98925.00;4977571;28;19925;-88
2023/07/11 19:21:04;;;;;;;;;;;;;;;11.83;100.00;98940.47;4977495;28;19913;-89
2023/07/11 19:23:32;;;;;;;;;;;;;;;11.98;100.00;98928.94;4994796;28;19922;-87
2023/07/11 19:25:58;;;;;;;;;;;;;;;11.95;100.00;98909.66;4991511;28;19921;-87
2023/07/11 19:28:27;;;;;;;;;;;;;;;11.92;100.00;98901.94;4976781;28;20369;-87
2023/07/11 19:30:53;;;;;;;;;;;;;;;11.95;100.00;98907.00;4994823;28;19961;-88
2023/07/11 19:33:20;;;;;;;;;;;;;;;11.97;100.00;98935.19;4994643;28;19924;-89
2023/07/11 19:35:48;;;;;;;;;;;;;;;12.03;100.00;98965.81;4977645;28;19921;-89
2023/07/11 19:38:15;;;;;;;;;;;;;;;11.99;100.00;98975.75;4994308;28;19968;-87
2023/07/11 19:40:40;;;;;;;;;;;;;;;12.03;100.00;98947.22;4993896;28;20357;-83
2023/07/11 19:43:06;;;;;;;;;;;;;;;11.99;100.00;98964.28;4994287;28;19930;-86
2023/07/11 19:45:33;;;;;;;;;;;;;;;12.12;100.00;98970.53;4994442;28;19925;-85
2023/07/11 19:47:58;;;;;;;;;;;;;;;12.02;100.00;98949.97;4994270;28;19922;-85
2023/07/11 19:50:32;;;;;;;;;;;;;;;12.00;100.00;98950.09;4993548;28;19918;-86
2023/07/11 19:52:58;;;;;;;;;;;;;;;11.99;100.00;98954.50;4994282;28;19928;-86
2023/07/11 19:55:24;;;;;;;;;;;;;;;12.09;100.00;98949.47;4976518;28;19918;-87
2023/07/11 19:57:50;;;;;;;;;;;;;;;12.12;100.00;98990.94;4993954;28;19925;-85
2023/07/11 20:00:18;;;;;;;;;;;;;;;12.04;100.00;99007.34;4977536;28;20365;-87
2023/07/11 20:02:43;;;;;;;;;;;;;;;12.09;100.00;99002.59;4995025;28;19918;-94
2023/07/11 20:05:08;;;;;;;;;;;;;;;12.09;100.00;99007.06;4995265;28;19922;-86
2023/07/11 20:07:34;;;;;;;;;;;;;;;12.13;100.00;98993.50;4994061;28;19941;-87
2023/07/11 20:10:02;;;;;;;;;;;;;;;12.24;100.00;98994.63;4994292;28;19926;-86
2023/07/11 20:12:29;;;;;;;;;;;;;;;12.22;100.00;99015.13;4993906;28;19922;-85
2023/07/11 20:14:54;;;;;;;;;;;;;;;12.17;100.00;99010.97;4993995;28;19918;-86
2023/07/11 20:17:23;;;;;;;;;;;;;;;12.17;100.00;99010.09;4992991;28;19922;-86
2023/07/11 20:19:48;;;;;;;;;;;;;;;12.18;100.00;99002.03;4993390;28;20366;-86
2023/07/11 20:22:13;;;;;;;;;;;;;;;12.29;100.00;99000.53;4975693;28;19918;-86
2023/07/11 20:24:42;;;;;;;;;;;;;;;12.18;100.00;99007.34;4976452;28;19923;-87
2023/07/11 20:27:16;;;;;;;;;;;;;;;12.22;100.00;99017.78;4991764;28;20344;-87
2023/07/11 20:29:41;;;;;;;;;;;;;;;12.17;100.00;99016.28;4993300;28;19930;-88